Terminal Aerodrome Forecast
Issued by NWS Twin Cities, MN

Home | Current Version | Previous Version | Text Only | Print | Product List | Glossary Off
Versions: 1 2 3 4 5 6 7 8 9 10 11 12 13 14

000
FTUS43 KMPX 302320
TAFEAU
TAF
KEAU 302320Z 3100/3124 27012G21KT P6SM FEW060
     FM310200 25005KT P6SM SKC
     FM311700 29015G24KT P6SM SKC=

USA.gov is the U.S. government's official web portal to all federal, state and local government web resources and services.